sim
Sign-in with your pilot id or email,
or register
Callsign
Passwort

Schedule Details

Flight Number: DLH2220
Departure: Munich Airport (EDDM) at 15:00
Arrival: Toulouse Blagnac Airport (LFBO) at 16:50
Route: Lufthansa Passenger Schedule. Enter filed route here before submitting Pirep.

Weather Information
Getting current METAR information for EDDM 240450Z VRB01KT CAVOK 08/08 Q1009 NOSIG
Getting current METAR information for LFBO 240500Z AUTO 00000KT 9999 FEW041 BKN070 BKN092 17/14 Q1011 TEMPO 4000 -SHRA SCT040TCU

Schedule Frequency

Route Map